Time;durP1;ratioP1;P1;durP2;ratioP2;P2;SDS_P1;SDS_P2;PMS_P1;PMS_P2;Temp;Humidity;BMP_temperature;BMP_pressure;BME280_temperature;BME280_humidity;BME280_pressure;Samples;Min_cycle;Max_cycle;Signal;HPM_P1;HPM_P2
2024/03/27 00:02:17;;;;;;;7.60;5.25;;;8.70;99.90;;;;;;7359604;19;20019;-59
2024/03/27 00:04:43;;;;;;;8.70;5.55;;;8.70;99.90;;;;;;7371242;19;20025;-64
2024/03/27 00:07:09;;;;;;;7.53;5.22;;;8.60;99.90;;;;;;7370086;19;20050;-64
2024/03/27 00:09:36;;;;;;;6.53;5.18;;;8.60;99.90;;;;;;7380142;19;20767;-64
2024/03/27 00:12:02;;;;;;;9.15;6.20;;;8.60;99.90;;;;;;7374814;19;20022;-63
2024/03/27 00:14:28;;;;;;;6.95;5.25;;;8.50;99.90;;;;;;7377847;19;20074;-62
2024/03/27 00:16:54;;;;;;;7.32;5.30;;;8.50;99.90;;;;;;7377983;19;20050;-61
2024/03/27 00:19:22;;;;;;;8.45;5.82;;;8.40;99.90;;;;;;7374774;19;20022;-59
2024/03/27 00:21:48;;;;;;;8.77;5.45;;;8.40;99.90;;;;;;7374293;19;20030;-62
2024/03/27 00:24:14;;;;;;;8.20;5.95;;;8.40;99.90;;;;;;7374899;19;20022;-60
2024/03/27 00:26:40;;;;;;;10.85;5.85;;;8.40;99.90;;;;;;7378314;19;20011;-59
2024/03/27 00:29:06;;;;;;;8.20;6.45;;;8.40;99.90;;;;;;7377573;19;20395;-62
2024/03/27 00:31:33;;;;;;;8.68;5.90;;;8.40;99.90;;;;;;7377320;19;20059;-62
2024/03/27 00:34:02;;;;;;;7.65;5.90;;;8.30;99.90;;;;;;7376796;19;20026;-59
2024/03/27 00:36:29;;;;;;;8.27;6.38;;;8.30;99.90;;;;;;7376550;19;20033;-62
2024/03/27 00:38:55;;;;;;;9.80;6.07;;;8.30;99.90;;;;;;7377487;19;20032;-64
2024/03/27 00:41:21;;;;;;;7.80;6.00;;;8.20;99.90;;;;;;7373239;19;20054;-59
2024/03/27 00:43:48;;;;;;;9.02;6.25;;;8.20;99.90;;;;;;7373782;19;20026;-62
2024/03/27 00:46:15;;;;;;;9.77;6.05;;;8.20;99.90;;;;;;7374222;19;20018;-62
2024/03/27 00:48:41;;;;;;;9.73;6.20;;;8.20;99.90;;;;;;7371358;19;20098;-62
2024/03/27 00:51:07;;;;;;;8.40;5.30;;;8.20;99.90;;;;;;7373740;19;20019;-62
2024/03/27 00:53:33;;;;;;;7.85;5.65;;;8.20;99.90;;;;;;7371210;19;20033;-62
2024/03/27 00:56:02;;;;;;;9.68;5.65;;;8.30;99.90;;;;;;7372666;19;20025;-59
2024/03/27 00:58:28;;;;;;;6.68;5.20;;;8.30;99.90;;;;;;7372603;19;20617;-62
2024/03/27 01:00:55;;;;;;;7.70;5.40;;;8.30;99.90;;;;;;7372876;19;20022;-60
2024/03/27 01:03:26;;;;;;;7.05;5.38;;;8.30;99.90;;;;;;7371673;19;20011;-62
2024/03/27 01:05:52;;;;;;;8.55;5.72;;;8.40;99.90;;;;;;7371138;19;20026;-63
2024/03/27 01:08:20;;;;;;;7.43;6.18;;;8.30;99.90;;;;;;7368987;19;20032;-64
2024/03/27 01:10:46;;;;;;;8.65;5.93;;;8.20;99.90;;;;;;7375936;19;20060;-62
2024/03/27 01:13:17;;;;;;;9.13;5.75;;;8.20;99.90;;;;;;7372959;19;20043;-62
2024/03/27 01:15:51;;;;;;;6.97;5.72;;;8.10;99.90;;;;;;7375951;19;20026;-62
2024/03/27 01:18:17;;;;;;;7.25;5.05;;;8.10;99.90;;;;;;7373445;19;20931;-61
2024/03/27 01:20:45;;;;;;;9.23;6.00;;;8.10;99.90;;;;;;7373678;19;20014;-62
2024/03/27 01:23:12;;;;;;;7.25;5.53;;;8.00;99.90;;;;;;7370818;19;20014;-62
2024/03/27 01:25:38;;;;;;;8.85;6.28;;;8.00;99.90;;;;;;7373232;19;20711;-62
2024/03/27 01:28:05;;;;;;;8.38;5.68;;;8.00;99.90;;;;;;7374280;19;20921;-62
2024/03/27 01:30:31;;;;;;;7.72;5.70;;;8.00;99.90;;;;;;7372820;19;20411;-62
2024/03/27 01:32:58;;;;;;;8.55;5.57;;;8.00;99.90;;;;;;7374599;19;20024;-61
2024/03/27 01:35:25;;;;;;;8.45;5.30;;;8.10;99.90;;;;;;7370527;19;20394;-62
2024/03/27 01:37:51;;;;;;;6.82;5.47;;;8.10;99.90;;;;;;7371188;19;20024;-62
2024/03/27 01:40:19;;;;;;;7.03;5.82;;;8.20;99.90;;;;;;7374001;19;20590;-62
2024/03/27 01:42:45;;;;;;;7.80;5.57;;;8.30;99.90;;;;;;7372936;19;20031;-64
2024/03/27 01:45:14;;;;;;;9.70;5.95;;;8.30;99.90;;;;;;7363796;19;21684;-63
2024/03/27 01:47:41;;;;;;;6.25;5.60;;;8.30;99.90;;;;;;7370871;19;20517;-62
2024/03/27 01:50:11;;;;;;;7.07;5.90;;;8.30;99.90;;;;;;7367829;19;20040;-60
2024/03/27 01:52:39;;;;;;;8.27;5.72;;;8.30;99.90;;;;;;7363484;19;20501;-59
2024/03/27 01:55:06;;;;;;;9.43;5.72;;;8.30;99.90;;;;;;7370341;19;20026;-59
2024/03/27 01:57:36;;;;;;;8.52;5.40;;;8.20;99.90;;;;;;7364885;19;20756;-59
2024/03/27 02:00:04;;;;;;;6.63;5.25;;;8.30;99.90;;;;;;7370350;19;20026;-60
2024/03/27 02:02:40;;;;;;;8.52;5.45;;;8.20;99.90;;;;;;7363736;19;20030;-60
2024/03/27 02:05:10;;;;;;;7.85;5.88;;;8.20;99.90;;;;;;7370297;19;20018;-62
2024/03/27 02:07:39;;;;;;;7.93;5.85;;;8.20;99.90;;;;;;7366815;19;20043;-62
2024/03/27 02:10:09;;;;;;;7.47;6.13;;;8.10;99.90;;;;;;7367390;19;20014;-60
2024/03/27 02:12:36;;;;;;;6.90;5.70;;;8.10;99.90;;;;;;7365344;19;20021;-63
2024/03/27 02:15:03;;;;;;;9.20;5.90;;;8.00;99.90;;;;;;7366007;19;20019;-63
2024/03/27 02:17:30;;;;;;;7.20;5.93;;;8.00;99.90;;;;;;7372411;19;20036;-63
2024/03/27 02:19:57;;;;;;;8.18;5.95;;;7.90;99.90;;;;;;7364869;19;20743;-60
2024/03/27 02:22:24;;;;;;;7.90;6.20;;;7.90;99.90;;;;;;7363919;19;20581;-62
2024/03/27 02:25:00;;;;;;;9.32;6.30;;;7.90;99.90;;;;;;7360650;19;20026;-62
2024/03/27 02:27:26;;;;;;;8.75;6.15;;;7.90;99.90;;;;;;7366815;19;20037;-63
2024/03/27 02:29:52;;;;;;;8.05;5.85;;;7.80;99.90;;;;;;7363994;19;20019;-62
2024/03/27 02:32:19;;;;;;;9.82;6.15;;;7.80;99.90;;;;;;7366544;19;20028;-59
2024/03/27 02:34:45;;;;;;;9.25;6.35;;;7.70;99.90;;;;;;7367297;19;20025;-63
2024/03/27 02:37:11;;;;;;;9.13;6.22;;;7.70;99.90;;;;;;7361783;19;20093;-62
2024/03/27 02:39:37;;;;;;;7.78;6.38;;;7.70;99.90;;;;;;7367725;19;20057;-62
2024/03/27 02:42:03;;;;;;;8.68;6.30;;;7.60;99.90;;;;;;7365596;19;20489;-63
2024/03/27 02:44:32;;;;;;;7.60;5.43;;;7.60;99.90;;;;;;7363288;19;20022;-62
2024/03/27 02:46:58;;;;;;;6.65;5.65;;;7.60;99.90;;;;;;7370116;19;20498;-63
2024/03/27 02:49:25;;;;;;;7.72;6.47;;;7.60;99.90;;;;;;7366660;19;20500;-60
2024/03/27 02:51:51;;;;;;;7.93;5.97;;;7.60;99.90;;;;;;7365559;19;20022;-63
2024/03/27 02:54:17;;;;;;;7.95;5.78;;;7.50;99.90;;;;;;7366769;19;20021;-62
2024/03/27 02:56:43;;;;;;;8.48;6.13;;;7.50;99.90;;;;;;7366103;19;20477;-60
2024/03/27 02:59:09;;;;;;;8.80;6.13;;;7.50;99.90;;;;;;7370148;19;20018;-62
2024/03/27 03:01:35;;;;;;;10.18;5.88;;;7.50;99.90;;;;;;7361878;19;20022;-60
2024/03/27 03:04:02;;;;;;;10.00;5.65;;;7.50;99.90;;;;;;7367075;19;20022;-63
2024/03/27 03:06:28;;;;;;;7.55;5.65;;;7.40;99.90;;;;;;7361447;19;20019;-63
2024/03/27 03:08:54;;;;;;;8.50;5.80;;;7.50;99.90;;;;;;7368927;19;20370;-63
2024/03/27 03:11:21;;;;;;;10.63;6.68;;;7.40;99.90;;;;;;7365127;19;20033;-63
2024/03/27 03:13:47;;;;;;;8.02;5.80;;;7.40;99.90;;;;;;7366721;19;20100;-63
2024/03/27 03:16:13;;;;;;;9.05;6.50;;;7.40;99.90;;;;;;7360011;19;20018;-60
2024/03/27 03:18:40;;;;;;;7.28;6.00;;;7.40;99.90;;;;;;7365980;19;20492;-60
2024/03/27 03:21:07;;;;;;;9.73;5.85;;;7.30;99.90;;;;;;7357988;19;20022;-60
2024/03/27 03:23:33;;;;;;;7.93;6.38;;;7.40;99.90;;;;;;7361263;19;20048;-60
2024/03/27 03:26:03;;;;;;;9.25;6.20;;;7.40;99.90;;;;;;7360310;19;20815;-60
2024/03/27 03:28:30;;;;;;;8.18;6.30;;;7.40;99.90;;;;;;7368108;19;20022;-63
2024/03/27 03:31:04;;;;;;;7.78;6.30;;;7.40;99.90;;;;;;7369397;19;20382;-63
2024/03/27 03:33:31;;;;;;;9.00;6.40;;;7.40;99.90;;;;;;7367381;19;20025;-60
2024/03/27 03:35:58;;;;;;;9.10;6.03;;;7.50;99.90;;;;;;7365558;19;20018;-63
2024/03/27 03:38:25;;;;;;;9.75;6.40;;;7.60;99.90;;;;;;7367520;19;20094;-63
2024/03/27 03:40:59;;;;;;;7.18;6.03;;;7.60;99.90;;;;;;7366901;19;20026;-60
2024/03/27 03:43:26;;;;;;;8.45;6.50;;;7.60;99.90;;;;;;7366072;19;20037;-63
2024/03/27 03:45:52;;;;;;;9.18;6.47;;;7.80;99.90;;;;;;7364994;19;20469;-63
2024/03/27 03:48:18;;;;;;;7.85;6.18;;;7.80;99.90;;;;;;7360966;19;20034;-60
2024/03/27 03:50:45;;;;;;;8.73;6.95;;;7.90;99.90;;;;;;7365471;19;20786;-60
2024/03/27 03:53:12;;;;;;;8.75;6.00;;;8.00;99.90;;;;;;7367002;19;20022;-60
2024/03/27 03:55:40;;;;;;;8.27;6.30;;;8.00;99.90;;;;;;7360229;19;20353;-63
2024/03/27 03:58:07;;;;;;;7.53;5.93;;;8.10;99.90;;;;;;7367999;19;20014;-63
2024/03/27 04:00:33;;;;;;;7.43;5.53;;;8.20;99.90;;;;;;7364077;19;21207;-60
2024/03/27 04:02:59;;;;;;;8.27;5.30;;;8.20;99.90;;;;;;7369401;19;20637;-60
2024/03/27 04:05:25;;;;;;;8.25;5.28;;;8.30;99.90;;;;;;7364368;19;20048;-60
2024/03/27 04:07:51;;;;;;;8.68;6.18;;;8.40;99.90;;;;;;7364241;19;20014;-60
2024/03/27 04:10:18;;;;;;;7.03;6.15;;;8.40;99.90;;;;;;7367414;19;20040;-60
2024/03/27 04:12:44;;;;;;;7.28;5.68;;;8.40;99.90;;;;;;7368117;19;20022;-63
2024/03/27 04:15:10;;;;;;;9.73;6.00;;;8.40;99.90;;;;;;7366659;19;20455;-60
2024/03/27 04:17:36;;;;;;;9.25;6.43;;;8.40;99.90;;;;;;7362533;19;20090;-63
2024/03/27 04:20:10;;;;;;;7.18;6.35;;;8.50;99.90;;;;;;7364429;19;20497;-60
2024/03/27 04:22:37;;;;;;;8.13;6.13;;;8.60;99.90;;;;;;7362841;19;20093;-63
2024/03/27 04:25:07;;;;;;;9.95;5.95;;;8.50;99.90;;;;;;7363276;19;20022;-63
2024/03/27 04:27:33;;;;;;;7.97;6.07;;;8.50;99.90;;;;;;7367365;19;20080;-63
2024/03/27 04:30:00;;;;;;;8.35;5.82;;;8.50;99.90;;;;;;7364879;19;20029;-63
2024/03/27 04:32:26;;;;;;;8.30;6.32;;;8.50;99.90;;;;;;7361099;19;20019;-61
2024/03/27 04:34:53;;;;;;;9.15;5.68;;;8.50;99.90;;;;;;7357718;19;20821;-60
2024/03/27 04:37:19;;;;;;;9.98;6.43;;;8.50;99.90;;;;;;7360061;19;21915;-63
2024/03/27 04:39:45;;;;;;;8.00;5.68;;;8.50;99.90;;;;;;7365786;19;20474;-60
2024/03/27 04:42:12;;;;;;;8.95;6.43;;;8.50;99.90;;;;;;7360732;19;20044;-60
2024/03/27 04:44:38;;;;;;;7.80;6.03;;;8.50;99.90;;;;;;7362084;19;20022;-63
2024/03/27 04:47:05;;;;;;;8.35;6.40;;;8.50;99.90;;;;;;7361097;19;20884;-63
2024/03/27 04:49:31;;;;;;;9.23;6.50;;;8.50;99.90;;;;;;7358026;19;20028;-64
2024/03/27 04:51:58;;;;;;;9.77;6.60;;;8.50;99.90;;;;;;7359834;19;20878;-61
2024/03/27 04:54:24;;;;;;;9.25;6.50;;;8.50;99.90;;;;;;7363343;19;20030;-61
2024/03/27 04:56:50;;;;;;;8.43;6.25;;;8.50;99.90;;;;;;7365984;19;20018;-62
2024/03/27 04:59:16;;;;;;;8.20;6.38;;;8.40;99.90;;;;;;7369866;19;20542;-62
2024/03/27 05:01:43;;;;;;;8.30;6.28;;;8.40;99.90;;;;;;7366904;19;20030;-62
2024/03/27 05:04:09;;;;;;;9.30;6.32;;;8.40;99.90;;;;;;7373008;19;20378;-63
2024/03/27 05:06:39;;;;;;;9.32;7.03;;;8.40;99.90;;;;;;7367996;19;20105;-62
2024/03/27 05:09:09;;;;;;;8.65;6.50;;;8.30;99.90;;;;;;7372395;19;20046;-59
2024/03/27 05:11:36;;;;;;;10.43;6.75;;;8.30;99.90;;;;;;7366520;19;20045;-59
2024/03/27 05:14:03;;;;;;;10.73;6.85;;;8.20;99.90;;;;;;7365587;19;20790;-59
2024/03/27 05:16:29;;;;;;;11.68;8.27;;;8.20;99.90;;;;;;7363328;19;20019;-60
2024/03/27 05:18:55;;;;;;;9.80;7.20;;;8.10;99.90;;;;;;7368599;19;20018;-60
2024/03/27 05:21:21;;;;;;;8.77;6.45;;;8.10;99.90;;;;;;7358851;19;20021;-63
2024/03/27 05:23:47;;;;;;;10.57;7.25;;;8.10;99.90;;;;;;7366820;19;20025;-62
2024/03/27 05:26:13;;;;;;;10.98;7.18;;;8.00;99.90;;;;;;7363330;19;20431;-64
2024/03/27 05:28:40;;;;;;;11.15;7.22;;;8.00;99.90;;;;;;7367578;19;21523;-62
2024/03/27 05:31:06;;;;;;;11.05;6.95;;;8.00;99.90;;;;;;7368693;19;20015;-64
2024/03/27 05:33:32;;;;;;;9.93;6.90;;;8.00;99.90;;;;;;7363752;19;20023;-63
2024/03/27 05:35:58;;;;;;;10.07;6.70;;;8.00;99.90;;;;;;7369606;19;20090;-61
2024/03/27 05:38:24;;;;;;;11.82;6.85;;;8.10;99.90;;;;;;7366098;19;20197;-61
2024/03/27 05:40:50;;;;;;;8.90;6.80;;;8.10;99.90;;;;;;7368958;19;20019;-61
2024/03/27 05:43:18;;;;;;;9.10;7.07;;;8.20;99.90;;;;;;7358679;19;20025;-61
2024/03/27 05:45:45;;;;;;;9.27;6.53;;;8.20;99.90;;;;;;7357390;19;20439;-61
2024/03/27 05:48:12;;;;;;;8.95;7.38;;;8.20;99.90;;;;;;7359952;19;20797;-61
2024/03/27 05:50:38;;;;;;;9.23;7.78;;;8.30;99.90;;;;;;7368396;19;20010;-60
2024/03/27 05:53:08;;;;;;;8.75;6.90;;;8.30;99.90;;;;;;7364953;19;20026;-60
2024/03/27 05:55:34;;;;;;;8.65;6.88;;;8.30;99.90;;;;;;7368701;19;20046;-63
2024/03/27 05:58:01;;;;;;;9.43;7.35;;;8.40;99.90;;;;;;7368264;19;20023;-64
2024/03/27 06:00:28;;;;;;;9.18;6.88;;;8.40;99.90;;;;;;7367193;19;20263;-65
2024/03/27 06:02:54;;;;;;;11.32;7.05;;;8.50;99.90;;;;;;7365053;19;20097;-60
2024/03/27 06:05:23;;;;;;;10.00;7.22;;;8.50;99.90;;;;;;7364820;19;20023;-63
2024/03/27 06:07:50;;;;;;;8.50;7.05;;;8.60;99.90;;;;;;7368847;19;20022;-60
2024/03/27 06:10:18;;;;;;;9.73;6.68;;;8.60;99.90;;;;;;7368731;19;20626;-64
2024/03/27 06:12:44;;;;;;;9.25;7.68;;;8.60;99.90;;;;;;7365996;19;20027;-62
2024/03/27 06:15:10;;;;;;;11.20;7.28;;;8.70;99.90;;;;;;7364143;19;20031;-64
2024/03/27 06:17:37;;;;;;;11.23;7.30;;;8.70;99.90;;;;;;7367194;19;20759;-61
2024/03/27 06:20:04;;;;;;;9.80;6.95;;;8.80;99.90;;;;;;7361801;19;20025;-61
2024/03/27 06:22:30;;;;;;;10.25;6.65;;;8.90;99.90;;;;;;7364939;19;20031;-64
2024/03/27 06:24:56;;;;;;;9.85;7.13;;;9.00;99.90;;;;;;7366917;19;20018;-67
2024/03/27 06:27:22;;;;;;;9.40;6.60;;;9.00;99.90;;;;;;7364081;19;20022;-64
2024/03/27 06:29:50;;;;;;;10.40;6.70;;;9.00;99.90;;;;;;7374325;19;20040;-64
2024/03/27 06:32:16;;;;;;;8.05;6.75;;;9.10;99.90;;;;;;7361492;19;20486;-61
2024/03/27 06:34:42;;;;;;;8.40;6.93;;;9.20;99.90;;;;;;7365229;19;20022;-61
2024/03/27 06:37:09;;;;;;;7.78;6.50;;;9.30;99.90;;;;;;7362015;19;20015;-61
2024/03/27 06:39:35;;;;;;;10.15;7.30;;;9.40;99.90;;;;;;7361208;19;20014;-61
2024/03/27 06:42:01;;;;;;;9.43;7.85;;;9.50;99.90;;;;;;7361889;19;20453;-61
2024/03/27 06:44:27;;;;;;;11.18;6.88;;;9.60;99.90;;;;;;7363137;19;20022;-61
2024/03/27 06:46:54;;;;;;;7.63;6.82;;;9.70;99.90;;;;;;7363061;19;20028;-64
2024/03/27 06:49:31;;;;;;;8.70;6.78;;;9.80;99.90;;;;;;7364445;19;20758;-64
2024/03/27 06:51:59;;;;;;;9.60;6.82;;;9.90;99.90;;;;;;7366102;19;20022;-61
2024/03/27 06:54:26;;;;;;;9.38;6.47;;;10.00;99.90;;;;;;7370207;19;20050;-61
2024/03/27 06:56:52;;;;;;;10.48;6.65;;;10.10;99.90;;;;;;7369851;19;20024;-64
2024/03/27 06:59:18;;;;;;;8.65;6.65;;;10.20;99.90;;;;;;7368663;19;20056;-64
2024/03/27 07:01:45;;;;;;;10.32;6.25;;;10.30;99.90;;;;;;7366757;19;20018;-64
2024/03/27 07:04:11;;;;;;;7.95;6.15;;;10.30;99.90;;;;;;7369492;19;20523;-64
2024/03/27 07:06:37;;;;;;;8.18;6.30;;;10.30;99.90;;;;;;7367158;19;20040;-64
2024/03/27 07:09:04;;;;;;;10.18;6.80;;;10.30;99.90;;;;;;7369324;19;20027;-61
2024/03/27 07:11:30;;;;;;;11.38;6.82;;;10.50;99.90;;;;;;7367655;19;20690;-64
2024/03/27 07:13:56;;;;;;;8.07;6.70;;;10.80;99.90;;;;;;7368122;19;20018;-65
2024/03/27 07:16:23;;;;;;;10.63;6.70;;;11.20;99.90;;;;;;7367010;19;20040;-64
2024/03/27 07:18:49;;;;;;;8.50;6.00;;;11.70;99.90;;;;;;7370171;19;20022;-64
2024/03/27 07:21:15;;;;;;;9.68;6.00;;;12.10;99.90;;;;;;7363242;19;20694;-64
2024/03/27 07:23:41;;;;;;;8.50;5.65;;;12.20;99.90;;;;;;7370653;19;20014;-64
2024/03/27 07:26:08;;;;;;;7.78;5.90;;;12.30;99.90;;;;;;7370897;19;20011;-64
2024/03/27 07:28:35;;;;;;;8.07;5.97;;;12.30;99.90;;;;;;7368090;19;20101;-64
2024/03/27 07:31:01;;;;;;;7.43;5.22;;;12.30;99.90;;;;;;7367368;19;20021;-64
2024/03/27 07:33:27;;;;;;;6.82;5.43;;;12.40;99.90;;;;;;7369456;19;20019;-61
2024/03/27 07:35:54;;;;;;;7.45;5.43;;;12.40;99.90;;;;;;7371999;19;20026;-61
2024/03/27 07:38:23;;;;;;;9.05;5.65;;;12.60;99.90;;;;;;7364510;19;20027;-64
2024/03/27 07:40:50;;;;;;;8.00;5.32;;;12.60;99.90;;;;;;7368080;19;20033;-64
2024/03/27 07:43:16;;;;;;;6.75;5.22;;;12.50;99.90;;;;;;7364556;19;20022;-62
2024/03/27 07:45:42;;;;;;;6.57;5.05;;;12.40;99.90;;;;;;7370364;19;20025;-64
2024/03/27 07:48:08;;;;;;;7.60;5.30;;;12.40;99.90;;;;;;7365303;19;20031;-64
2024/03/27 07:50:35;;;;;;;6.53;5.20;;;12.30;99.90;;;;;;7366847;19;20093;-64
2024/03/27 07:53:02;;;;;;;7.30;5.78;;;12.30;99.90;;;;;;7366415;19;20014;-64
2024/03/27 07:55:29;;;;;;;7.53;5.20;;;12.40;99.90;;;;;;7366078;19;20017;-61
2024/03/27 07:57:55;;;;;;;6.05;5.05;;;12.50;99.90;;;;;;7366505;19;20033;-61
2024/03/27 08:00:21;;;;;;;6.40;4.65;;;12.50;99.90;;;;;;7363250;19;20034;-61
2024/03/27 08:02:47;;;;;;;8.05;5.05;;;12.40;99.90;;;;;;7365636;19;20815;-64
2024/03/27 08:05:17;;;;;;;6.43;5.10;;;12.40;99.90;;;;;;7366959;19;20022;-66
2024/03/27 08:07:43;;;;;;;6.20;5.03;;;12.30;99.90;;;;;;7366005;19;20126;-64
2024/03/27 08:10:09;;;;;;;7.53;4.82;;;12.20;99.90;;;;;;7366499;19;20018;-65
2024/03/27 08:12:35;;;;;;;7.18;4.90;;;12.10;99.90;;;;;;7363920;19;20022;-65
2024/03/27 08:15:02;;;;;;;6.18;4.97;;;12.10;99.90;;;;;;7367894;19;20654;-62
2024/03/27 08:17:29;;;;;;;6.05;4.57;;;12.20;99.90;;;;;;7364005;19;20803;-61
2024/03/27 08:19:55;;;;;;;6.60;4.80;;;12.30;99.90;;;;;;7370245;19;20029;-61
2024/03/27 08:22:21;;;;;;;7.10;5.30;;;12.30;99.90;;;;;;7367130;19;20030;-64
2024/03/27 08:24:47;;;;;;;6.50;5.10;;;12.40;99.90;;;;;;7367535;19;20098;-63
2024/03/27 08:27:14;;;;;;;6.70;4.82;;;12.50;99.90;;;;;;7366349;19;20046;-63
2024/03/27 08:29:40;;;;;;;6.90;4.97;;;12.40;99.90;;;;;;7375111;19;20011;-63
2024/03/27 08:32:06;;;;;;;7.35;5.68;;;12.50;99.90;;;;;;7376415;19;20396;-64
2024/03/27 08:34:32;;;;;;;7.93;5.72;;;12.40;99.90;;;;;;7378010;19;20601;-63
2024/03/27 08:36:58;;;;;;;8.00;5.68;;;12.50;99.90;;;;;;7377901;19;20033;-62
2024/03/27 08:39:26;;;;;;;6.13;5.13;;;12.50;99.90;;;;;;7374513;19;20120;-65
2024/03/27 08:41:54;;;;;;;6.30;5.35;;;12.60;99.90;;;;;;7377146;19;20023;-65
2024/03/27 08:44:20;;;;;;;8.88;5.90;;;12.70;99.90;;;;;;7373375;19;20760;-64
2024/03/27 08:46:46;;;;;;;6.38;5.53;;;12.80;99.90;;;;;;7375330;19;20044;-64
2024/03/27 08:49:13;;;;;;;7.05;6.28;;;12.90;99.90;;;;;;7375253;19;20019;-63
2024/03/27 08:51:41;;;;;;;7.88;6.07;;;13.00;99.90;;;;;;7375978;19;20025;-64
2024/03/27 08:54:07;;;;;;;7.10;6.22;;;13.10;99.90;;;;;;7371381;19;20414;-67
2024/03/27 08:56:35;;;;;;;8.35;6.20;;;13.30;99.90;;;;;;7373819;19;20021;-65
2024/03/27 08:59:02;;;;;;;7.85;5.88;;;13.90;99.90;;;;;;7371582;19;21056;-62
2024/03/27 09:01:28;;;;;;;6.22;5.63;;;14.00;99.90;;;;;;7373989;19;20018;-65
2024/03/27 09:03:54;;;;;;;8.38;6.88;;;14.10;99.90;;;;;;7375325;19;20015;-65
2024/03/27 09:06:20;;;;;;;7.45;6.28;;;14.50;99.90;;;;;;7375610;19;20022;-65
2024/03/27 09:08:47;;;;;;;7.22;6.35;;;14.80;99.90;;;;;;7373601;19;20022;-64
2024/03/27 09:11:13;;;;;;;8.85;5.70;;;15.40;99.90;;;;;;7374753;19;20025;-65
2024/03/27 09:13:41;;;;;;;6.90;6.00;;;15.60;99.90;;;;;;7373423;19;20018;-64
2024/03/27 09:16:08;;;;;;;6.63;5.90;;;15.80;99.90;;;;;;7375155;19;20389;-65
2024/03/27 09:18:34;;;;;;;6.00;5.40;;;15.80;99.90;;;;;;7373369;19;20018;-65
2024/03/27 09:21:01;;;;;;;6.57;5.85;;;15.50;99.90;;;;;;7366472;19;20018;-64
2024/03/27 09:23:28;;;;;;;10.13;7.00;;;15.40;99.90;;;;;;7362084;19;20029;-64
2024/03/27 09:26:00;;;;;;;6.85;6.15;;;15.00;99.90;;;;;;7371268;19;20599;-64
2024/03/27 09:28:27;;;;;;;6.72;6.13;;;15.30;99.90;;;;;;7365197;19;20038;-64
2024/03/27 09:30:55;;;;;;;6.90;6.13;;;15.60;99.90;;;;;;7370329;19;20022;-64
2024/03/27 09:33:23;;;;;;;6.55;5.95;;;15.40;99.90;;;;;;7371147;19;20014;-64
2024/03/27 09:35:50;;;;;;;8.50;6.60;;;14.90;99.90;;;;;;7375576;19;20033;-64
2024/03/27 09:38:17;;;;;;;6.93;5.43;;;14.50;99.90;;;;;;7368459;19;20446;-64
2024/03/27 09:41:02;;;;;;;6.50;5.80;;;14.10;99.90;;;;;;7374405;19;20609;-64
2024/03/27 09:43:31;;;;;;;8.02;6.60;;;13.70;99.90;;;;;;7369322;19;20014;-64
2024/03/27 09:45:58;;;;;;;8.63;6.40;;;13.60;99.90;;;;;;7374292;19;20011;-64
2024/03/27 09:48:25;;;;;;;7.60;6.75;;;13.30;99.90;;;;;;7370022;19;20022;-64
2024/03/27 09:50:53;;;;;;;7.03;6.05;;;13.30;99.90;;;;;;7371714;19;20019;-64
2024/03/27 09:53:20;;;;;;;7.38;6.63;;;13.30;99.90;;;;;;7370150;19;20754;-61
2024/03/27 09:55:48;;;;;;;6.60;5.90;;;13.10;99.90;;;;;;7371980;19;20058;-61
2024/03/27 09:58:16;;;;;;;7.47;6.65;;;12.80;99.90;;;;;;7369705;19;20014;-61
2024/03/27 10:00:43;;;;;;;7.32;6.38;;;12.60;99.90;;;;;;7371091;19;20054;-60
2024/03/27 10:03:09;;;;;;;9.20;7.35;;;12.50;99.90;;;;;;7370813;19;20359;-64
2024/03/27 10:05:37;;;;;;;8.85;6.95;;;12.40;99.90;;;;;;7369940;19;20025;-65
2024/03/27 10:08:06;;;;;;;9.40;6.55;;;12.40;99.90;;;;;;7372569;19;20022;-64
2024/03/27 10:10:33;;;;;;;6.30;5.20;;;12.20;99.90;;;;;;7363835;19;20018;-60
2024/03/27 10:13:00;;;;;;;7.22;5.35;;;12.10;99.90;;;;;;7358336;19;20018;-60
2024/03/27 10:15:29;;;;;;;6.78;5.68;;;12.00;99.90;;;;;;7358623;19;20061;-61
2024/03/27 10:17:56;;;;;;;7.40;4.82;;;11.90;99.90;;;;;;7365757;19;20029;-61
2024/03/27 10:20:22;;;;;;;8.10;5.32;;;11.80;99.90;;;;;;7356885;19;20051;-60
2024/03/27 10:22:49;;;;;;;11.07;7.85;;;11.80;99.90;;;;;;7367836;19;20025;-60
2024/03/27 10:25:16;;;;;;;6.70;6.00;;;11.80;99.90;;;;;;7360941;19;20014;-60
2024/03/27 10:27:42;;;;;;;8.13;5.78;;;12.00;99.90;;;;;;7364213;19;20015;-60
2024/03/27 10:30:10;;;;;;;9.70;6.90;;;12.10;99.90;;;;;;7362787;19;20022;-62
2024/03/27 10:32:37;;;;;;;8.25;6.28;;;12.30;99.90;;;;;;7371903;19;20043;-60
2024/03/27 10:35:04;;;;;;;7.28;5.95;;;12.40;99.90;;;;;;7373214;19;20069;-60
2024/03/27 10:37:32;;;;;;;8.25;6.00;;;12.40;99.90;;;;;;7374572;19;20060;-60
2024/03/27 10:40:03;;;;;;;8.85;6.57;;;12.40;99.90;;;;;;7373269;19;20133;-61
2024/03/27 10:42:36;;;;;;;7.95;6.03;;;12.30;99.90;;;;;;7371367;19;20018;-60
2024/03/27 10:45:07;;;;;;;7.53;6.13;;;12.30;99.90;;;;;;7373521;19;20019;-60
2024/03/27 10:47:34;;;;;;;7.97;5.07;;;12.20;99.90;;;;;;7370918;19;20117;-60
2024/03/27 10:50:04;;;;;;;6.55;5.28;;;11.90;99.90;;;;;;7373318;19;20102;-60
2024/03/27 10:52:32;;;;;;;6.90;5.32;;;11.60;99.90;;;;;;7369331;19;20040;-60
2024/03/27 10:55:00;;;;;;;5.75;4.88;;;11.60;99.90;;;;;;7374052;19;20019;-60
2024/03/27 10:57:27;;;;;;;7.05;5.32;;;11.70;99.90;;;;;;7371563;19;20052;-60
2024/03/27 10:59:55;;;;;;;6.78;5.20;;;11.70;99.90;;;;;;7372306;19;20098;-60
2024/03/27 11:02:21;;;;;;;7.55;6.28;;;11.80;99.90;;;;;;7368190;19;20015;-60
2024/03/27 11:04:58;;;;;;;8.05;5.65;;;11.80;99.90;;;;;;7374282;19;20026;-60
2024/03/27 11:07:25;;;;;;;6.50;5.65;;;11.90;99.90;;;;;;7363153;19;20030;-60
2024/03/27 11:09:53;;;;;;;6.80;6.10;;;12.00;99.90;;;;;;7370723;19;20015;-60
2024/03/27 11:12:21;;;;;;;7.72;6.65;;;12.00;99.90;;;;;;7370360;19;20074;-61
2024/03/27 11:14:48;;;;;;;7.80;6.70;;;11.90;99.90;;;;;;7370106;19;20033;-60
2024/03/27 11:17:15;;;;;;;8.27;6.15;;;11.90;99.90;;;;;;7372805;19;20025;-60
2024/03/27 11:19:43;;;;;;;7.90;7.10;;;12.00;99.90;;;;;;7370252;19;20793;-60
2024/03/27 11:22:10;;;;;;;7.93;7.15;;;12.00;99.90;;;;;;7370335;19;20378;-61
2024/03/27 11:24:37;;;;;;;7.53;6.07;;;12.00;99.90;;;;;;7369811;19;20798;-60
2024/03/27 11:27:04;;;;;;;8.13;6.93;;;11.90;99.90;;;;;;7372081;19;20015;-60
2024/03/27 11:29:31;;;;;;;11.00;8.27;;;12.00;99.90;;;;;;7366958;19;20047;-60
2024/03/27 11:32:01;;;;;;;8.52;7.63;;;11.90;99.90;;;;;;7361762;19;20023;-61
2024/03/27 11:34:28;;;;;;;8.13;7.00;;;12.00;99.90;;;;;;7365899;19;20048;-61
2024/03/27 11:36:56;;;;;;;10.82;8.40;;;12.10;99.90;;;;;;7369771;19;20029;-62
2024/03/27 11:39:23;;;;;;;9.93;7.85;;;12.10;99.90;;;;;;7363196;19;20018;-61
2024/03/27 11:41:51;;;;;;;8.90;7.85;;;12.00;99.90;;;;;;7365933;19;20094;-61
2024/03/27 11:44:18;;;;;;;9.55;8.40;;;12.00;99.90;;;;;;7370111;19;20077;-61
2024/03/27 11:46:45;;;;;;;9.90;8.52;;;11.80;99.90;;;;;;7365032;19;20018;-61
2024/03/27 11:49:15;;;;;;;11.32;9.38;;;11.70;99.90;;;;;;7369604;19;20014;-61
2024/03/27 11:51:43;;;;;;;9.82;8.82;;;11.70;99.90;;;;;;7361932;19;20045;-62
2024/03/27 11:54:09;;;;;;;10.65;8.38;;;11.60;99.90;;;;;;7359634;19;20022;-60
2024/03/27 11:56:36;;;;;;;11.77;9.45;;;11.60;99.90;;;;;;7358861;19;20022;-62
2024/03/27 11:59:03;;;;;;;23.90;20.73;;;11.70;99.90;;;;;;7360754;19;20042;-60
2024/03/27 12:01:30;;;;;;;13.15;9.70;;;11.50;99.90;;;;;;7361782;19;20656;-61
2024/03/27 12:03:58;;;;;;;10.70;8.45;;;11.60;99.90;;;;;;7372328;19;20022;-60
2024/03/27 12:06:25;;;;;;;16.60;10.77;;;11.60;99.90;;;;;;7363983;19;20341;-60
2024/03/27 12:08:52;;;;;;;10.25;8.50;;;11.80;99.90;;;;;;7365934;19;20018;-59
2024/03/27 12:11:19;;;;;;;10.43;7.95;;;11.70;99.90;;;;;;7370427;19;20439;-59
2024/03/27 12:13:45;;;;;;;8.18;6.07;;;11.70;99.90;;;;;;7368393;19;20023;-59
2024/03/27 12:16:13;;;;;;;8.40;6.97;;;11.70;99.90;;;;;;7374239;19;20045;-60
2024/03/27 12:18:41;;;;;;;10.48;7.43;;;11.60;99.90;;;;;;7360330;19;21184;-60
2024/03/27 12:21:14;;;;;;;13.98;9.65;;;11.50;99.90;;;;;;7370928;19;20437;-61
2024/03/27 12:23:44;;;;;;;11.35;8.43;;;11.40;99.90;;;;;;7370820;19;20095;-63
2024/03/27 12:26:11;;;;;;;9.63;8.63;;;11.40;99.90;;;;;;7372178;19;20022;-60
2024/03/27 12:28:45;;;;;;;10.98;8.63;;;11.40;99.90;;;;;;7382582;19;20077;-59
2024/03/27 12:31:14;;;;;;;13.13;9.40;;;11.40;99.90;;;;;;7381623;19;20041;-61
2024/03/27 12:33:40;;;;;;;14.38;9.38;;;11.40;99.90;;;;;;7380238;19;20014;-61
2024/03/27 12:36:07;;;;;;;10.25;8.63;;;11.30;99.90;;;;;;7381099;19;20015;-60
2024/03/27 12:38:33;;;;;;;11.57;9.73;;;11.30;99.90;;;;;;7377597;19;20018;-61
2024/03/27 12:41:01;;;;;;;13.70;10.63;;;11.30;99.90;;;;;;7382755;19;20018;-63
2024/03/27 12:43:27;;;;;;;13.73;10.48;;;11.30;99.90;;;;;;7381725;19;20035;-59
2024/03/27 12:45:54;;;;;;;11.63;10.18;;;11.30;99.90;;;;;;7375673;19;20074;-59
2024/03/27 12:48:22;;;;;;;12.15;10.30;;;11.30;99.90;;;;;;7375454;19;20035;-58
2024/03/27 12:54:28;;;;;;;12.55;11.02;;;11.30;99.90;;;;;;7376264;19;20039;-58